Time;durP1;ratioP1;P1;durP2;ratioP2;P2;SDS_P1;SDS_P2;PMS_P1;PMS_P2;Temp;Humidity;BMP_temperature;BMP_pressure;BME280_temperature;BME280_humidity;BME280_pressure;Samples;Min_cycle;Max_cycle;Signal;HPM_P1;HPM_P2
2022/07/15 00:00:33;;;;;;;;;;;;;;;27.99;54.22;98760.34;2103957;28;19927;-70
2022/07/15 00:01:35;;;;;;;;;;;;;;;28.00;54.54;98759.25;2101526;28;19938;-70
2022/07/15 00:02:37;;;;;;;;;;;;;;;27.98;54.66;98758.72;2099547;28;19935;-70
2022/07/15 00:03:38;;;;;;;;;;;;;;;27.99;54.30;98760.34;2103180;28;20320;-70
2022/07/15 00:04:39;;;;;;;;;;;;;;;28.00;54.57;98756.50;2101703;28;20800;-70
2022/07/15 00:05:41;;;;;;;;;;;;;;;28.02;53.93;98762.53;2102876;28;19938;-70
2022/07/15 00:06:41;;;;;;;;;;;;;;;28.02;54.12;98751.63;2098645;28;19927;-70
2022/07/15 00:07:43;;;;;;;;;;;;;;;27.95;55.00;98751.06;2101550;28;20027;-70
2022/07/15 00:08:43;;;;;;;;;;;;;;;27.91;55.36;98758.91;2103103;28;20022;-70
2022/07/15 00:11:04;;;;;;;;;;;;;;;27.98;54.92;98742.34;2098586;28;19927;-70
2022/07/15 00:12:04;;;;;;;;;;;;;;;28.02;54.34;98740.72;2100616;28;20000;-70
2022/07/15 00:13:06;;;;;;;;;;;;;;;28.02;54.64;98748.91;2102863;28;20525;-71
2022/07/15 00:14:07;;;;;;;;;;;;;;;27.94;54.62;98747.50;2097240;28;20322;-71
2022/07/15 00:15:08;;;;;;;;;;;;;;;27.93;54.77;98747.75;2098636;28;19975;-70
2022/07/15 00:16:09;;;;;;;;;;;;;;;27.92;55.13;98741.50;2100837;28;21043;-70
2022/07/15 00:17:11;;;;;;;;;;;;;;;27.88;55.47;98743.09;2098917;28;19931;-71
2022/07/15 00:18:13;;;;;;;;;;;;;;;27.90;55.04;98737.38;2101887;28;20022;-70
2022/07/15 00:19:14;;;;;;;;;;;;;;;27.91;54.87;98741.75;2104602;28;20641;-71
2022/07/15 00:20:15;;;;;;;;;;;;;;;27.92;54.78;98740.69;2098685;28;19944;-70
2022/07/15 00:21:17;;;;;;;;;;;;;;;27.91;54.64;98736.28;2102299;28;19931;-70
2022/07/15 00:22:17;;;;;;;;;;;;;;;27.89;54.99;98736.56;2104212;28;19928;-71
2022/07/15 00:23:19;;;;;;;;;;;;;;;27.90;54.87;98740.13;2105912;28;19992;-70
2022/07/15 00:24:19;;;;;;;;;;;;;;;27.89;55.22;98735.72;2106402;28;19924;-71
2022/07/15 00:25:21;;;;;;;;;;;;;;;27.90;55.15;98732.75;2100149;28;20018;-71
2022/07/15 00:26:22;;;;;;;;;;;;;;;27.91;55.13;98736.28;2102977;28;19932;-70
2022/07/15 00:27:24;;;;;;;;;;;;;;;27.82;55.24;98728.59;2102815;28;19939;-70
2022/07/15 00:28:24;;;;;;;;;;;;;;;27.84;55.56;98731.91;2100613;28;20546;-71
2022/07/15 00:29:26;;;;;;;;;;;;;;;27.89;55.15;98733.00;2094309;28;19955;-71
2022/07/15 00:30:28;;;;;;;;;;;;;;;27.90;54.57;98729.22;2099267;28;20008;-70
2022/07/15 00:31:30;;;;;;;;;;;;;;;27.92;54.71;98736.03;2101489;28;23026;-71
2022/07/15 00:32:30;;;;;;;;;;;;;;;28.00;54.05;98731.97;2096336;28;19980;-70
2022/07/15 00:33:33;;;;;;;;;;;;;;;28.02;53.76;98735.28;2097731;28;19935;-70
2022/07/15 00:34:34;;;;;;;;;;;;;;;28.02;54.26;98738.00;2103835;28;20428;-70
2022/07/15 00:35:37;;;;;;;;;;;;;;;28.04;54.46;98728.47;2102027;28;19924;-70
2022/07/15 00:36:38;;;;;;;;;;;;;;;28.00;54.21;98729.25;2103176;28;19924;-69
2022/07/15 00:37:40;;;;;;;;;;;;;;;27.97;54.68;98721.59;2104751;28;19962;-69
2022/07/15 00:38:41;;;;;;;;;;;;;;;27.88;55.42;98723.19;2101325;28;19954;-69
2022/07/15 00:39:43;;;;;;;;;;;;;;;27.94;55.11;98727.59;2106338;28;19927;-70
2022/07/15 00:40:45;;;;;;;;;;;;;;;27.94;54.61;98724.84;2105481;28;20418;-70
2022/07/15 00:41:46;;;;;;;;;;;;;;;27.93;54.67;98726.78;2103172;28;19924;-69
2022/07/15 00:42:48;;;;;;;;;;;;;;;27.94;54.59;98728.41;2099235;28;19954;-69
2022/07/15 00:43:48;;;;;;;;;;;;;;;27.97;54.60;98724.34;2099490;28;19938;-69
2022/07/15 00:44:50;;;;;;;;;;;;;;;27.94;54.25;98722.94;2099945;28;20062;-70
2022/07/15 00:45:52;;;;;;;;;;;;;;;27.98;54.30;98724.09;2100867;28;19928;-69
2022/07/15 00:46:54;;;;;;;;;;;;;;;27.96;54.16;98726.25;2101044;28;19927;-69
2022/07/15 00:47:56;;;;;;;;;;;;;;;27.94;54.36;98725.69;2097402;28;19932;-69
2022/07/15 00:48:59;;;;;;;;;;;;;;;27.95;54.55;98726.53;2101721;28;19973;-69
2022/07/15 00:49:59;;;;;;;;;;;;;;;27.99;53.79;98731.16;2104630;28;19931;-69
2022/07/15 00:51:01;;;;;;;;;;;;;;;28.03;53.94;98726.03;2096572;28;20924;-69
2022/07/15 00:52:04;;;;;;;;;;;;;;;28.03;53.54;98731.47;2103006;28;19984;-69
2022/07/15 00:53:07;;;;;;;;;;;;;;;28.05;53.70;98726.56;2105555;28;20026;-69
2022/07/15 00:54:09;;;;;;;;;;;;;;;28.11;53.60;98725.53;2093551;28;19930;-69
2022/07/15 00:55:11;;;;;;;;;;;;;;;28.13;53.41;98727.97;2096011;28;19932;-69
2022/07/15 00:56:13;;;;;;;;;;;;;;;28.14;53.74;98716.81;2100875;28;19924;-70
2022/07/15 00:57:17;;;;;;;;;;;;;;;28.15;53.30;98720.38;2103757;28;19981;-70
2022/07/15 00:58:20;;;;;;;;;;;;;;;28.17;53.32;98724.47;2105600;28;19931;-70
2022/07/15 00:59:23;;;;;;;;;;;;;;;28.19;53.53;98719.56;2105414;28;20332;-70
2022/07/15 01:00:23;;;;;;;;;;;;;;;28.22;53.54;98723.66;2101303;28;19943;-69
2022/07/15 01:01:25;;;;;;;;;;;;;;;28.27;53.11;98723.69;2102540;28;20592;-70
2022/07/15 01:02:26;;;;;;;;;;;;;;;28.33;53.51;98724.53;2088459;28;20662;-70
2022/07/15 01:03:28;;;;;;;;;;;;;;;28.33;52.74;98725.34;2092981;28;19951;-70
2022/07/15 01:04:32;;;;;;;;;;;;;;;28.29;53.18;98719.63;2095667;28;19950;-71
2022/07/15 01:05:34;;;;;;;;;;;;;;;28.22;53.87;98716.31;2097101;28;19935;-71
2022/07/15 01:06:35;;;;;;;;;;;;;;;28.25;52.92;98709.50;2098196;28;21073;-70
2022/07/15 01:07:36;;;;;;;;;;;;;;;28.14;53.78;98722.28;2098698;28;19932;-70
2022/07/15 01:08:37;;;;;;;;;;;;;;;28.07;54.53;98716.22;2098435;28;20499;-71
2022/07/15 01:09:39;;;;;;;;;;;;;;;28.03;54.55;98710.50;2105419;28;20251;-70
2022/07/15 01:10:39;;;;;;;;;;;;;;;28.09;54.21;98702.34;2097128;28;19928;-70
2022/07/15 01:11:41;;;;;;;;;;;;;;;28.11;54.41;98706.44;2095457;28;20487;-70
2022/07/15 01:12:43;;;;;;;;;;;;;;;28.10;54.34;98704.78;2099080;28;20433;-70
2022/07/15 01:13:44;;;;;;;;;;;;;;;28.08;54.14;98706.94;2096638;27;19928;-71
2022/07/15 01:14:45;;;;;;;;;;;;;;;28.09;54.17;98711.34;2098299;28;19966;-70
2022/07/15 01:15:47;;;;;;;;;;;;;;;28.06;54.32;98714.59;2094809;28;19934;-70
2022/07/15 01:16:47;;;;;;;;;;;;;;;28.11;54.28;98711.91;2101950;28;19931;-70
2022/07/15 01:17:49;;;;;;;;;;;;;;;28.07;55.05;98713.50;2100433;28;19938;-70
2022/07/15 01:18:49;;;;;;;;;;;;;;;28.01;54.93;98706.38;2098739;28;19996;-69
2022/07/15 01:19:53;;;;;;;;;;;;;;;27.97;55.24;98706.09;2100578;28;19980;-67
2022/07/15 01:20:55;;;;;;;;;;;;;;;28.01;55.00;98706.38;2101645;28;19932;-70
2022/07/15 01:21:56;;;;;;;;;;;;;;;27.92;55.31;98699.78;2092742;28;19927;-70
2022/07/15 01:22:58;;;;;;;;;;;;;;;27.91;55.44;98701.66;2104344;28;19935;-70
2022/07/15 01:24:00;;;;;;;;;;;;;;;27.95;55.06;98707.44;2101485;28;19924;-70
2022/07/15 01:25:01;;;;;;;;;;;;;;;27.92;55.26;98697.88;2098449;28;19923;-70
2022/07/15 01:26:03;;;;;;;;;;;;;;;27.90;55.02;98697.31;2097911;28;19928;-70
2022/07/15 01:27:03;;;;;;;;;;;;;;;27.86;55.83;98698.94;2099756;28;20338;-70
2022/07/15 01:28:06;;;;;;;;;;;;;;;27.81;55.57;98698.91;2098184;28;19938;-70
2022/07/15 01:29:06;;;;;;;;;;;;;;;27.83;55.25;98694.84;2097946;28;19932;-70
2022/07/15 01:30:09;;;;;;;;;;;;;;;27.83;55.45;98696.72;2100377;28;19928;-70
2022/07/15 01:31:10;;;;;;;;;;;;;;;27.85;55.51;98698.09;2095388;28;20153;-70
2022/07/15 01:32:11;;;;;;;;;;;;;;;27.85;55.10;98700.81;2099106;28;19931;-69
2022/07/15 01:33:13;;;;;;;;;;;;;;;27.90;55.29;98700.03;2099438;28;19942;-70
2022/07/15 01:34:13;;;;;;;;;;;;;;;27.85;55.44;98703.53;2090491;28;20024;-70
2022/07/15 01:35:15;;;;;;;;;;;;;;;27.89;54.79;98703.03;2099998;28;19931;-70
2022/07/15 01:36:17;;;;;;;;;;;;;;;27.90;54.91;98700.03;2104794;28;19988;-70
2022/07/15 01:37:18;;;;;;;;;;;;;;;27.86;54.80;98690.75;2099409;28;19935;-70
2022/07/15 01:38:19;;;;;;;;;;;;;;;27.83;55.28;98696.72;2096607;28;19934;-70
2022/07/15 01:39:21;;;;;;;;;;;;;;;27.84;55.38;98701.91;2099565;28;20365;-70
2022/07/15 01:40:21;;;;;;;;;;;;;;;27.77;55.67;98690.38;2101666;28;19930;-70
2022/07/15 01:41:23;;;;;;;;;;;;;;;27.74;55.78;98690.91;2104312;28;20459;-70
2022/07/15 01:42:24;;;;;;;;;;;;;;;27.83;55.59;98694.00;2099981;28;19963;-70
2022/07/15 01:43:25;;;;;;;;;;;;;;;27.85;55.06;98694.56;2098534;28;20526;-70
2022/07/15 01:44:26;;;;;;;;;;;;;;;27.81;55.27;98697.00;2099759;28;20629;-70
2022/07/15 01:45:27;;;;;;;;;;;;;;;27.87;55.05;98697.84;2103928;28;19931;-70
2022/07/15 01:46:28;;;;;;;;;;;;;;;27.89;55.03;98697.56;2103560;28;20144;-70
2022/07/15 01:47:31;;;;;;;;;;;;;;;27.89;54.79;98698.41;2104790;28;20288;-70
2022/07/15 01:49:50;;;;;;;;;;;;;;;27.81;55.57;98691.53;2101074;28;20555;-68
2022/07/15 01:50:52;;;;;;;;;;;;;;;27.77;55.46;98695.81;2099177;28;19931;-70
2022/07/15 01:51:55;;;;;;;;;;;;;;;27.77;55.61;98687.66;2102731;28;19951;-70
2022/07/15 01:52:57;;;;;;;;;;;;;;;27.81;55.19;98683.38;2098230;28;20153;-70
2022/07/15 01:53:57;;;;;;;;;;;;;;;27.88;55.17;98685.03;2098265;28;19932;-70
2022/07/15 01:54:59;;;;;;;;;;;;;;;27.80;55.33;98691.78;2095157;28;19934;-70
2022/07/15 01:55:59;;;;;;;;;;;;;;;27.72;56.04;98682.19;2098322;28;20560;-70
2022/07/15 01:57:01;;;;;;;;;;;;;;;27.67;56.24;98684.88;2103625;28;19924;-70
2022/07/15 01:58:02;;;;;;;;;;;;;;;27.75;55.93;98684.38;2100366;28;20197;-70
2022/07/15 01:59:03;;;;;;;;;;;;;;;27.73;55.67;98681.09;2100524;28;19973;-70
2022/07/15 02:00:06;;;;;;;;;;;;;;;27.72;56.02;98687.66;2097507;28;19924;-71
2022/07/15 02:01:07;;;;;;;;;;;;;;;27.74;56.02;98685.47;2096837;28;19935;-71
2022/07/15 02:02:09;;;;;;;;;;;;;;;27.77;55.60;98681.38;2098050;28;19931;-71
2022/07/15 02:03:10;;;;;;;;;;;;;;;27.81;55.52;98677.09;2101770;28;21209;-70
2022/07/15 02:04:12;;;;;;;;;;;;;;;27.80;55.46;98684.47;2094319;28;19933;-70
2022/07/15 02:05:13;;;;;;;;;;;;;;;27.77;55.86;98681.38;2095016;28;19928;-70
2022/07/15 02:06:14;;;;;;;;;;;;;;;27.74;56.36;98680.00;2102065;28;19924;-70
2022/07/15 02:07:16;;;;;;;;;;;;;;;27.65;56.54;98675.31;2101617;28;20752;-70
2022/07/15 02:08:18;;;;;;;;;;;;;;;27.55;57.19;98674.19;2097113;28;19988;-71
2022/07/15 02:09:19;;;;;;;;;;;;;;;27.52;57.02;98676.59;2098679;28;20349;-70
2022/07/15 02:10:20;;;;;;;;;;;;;;;27.52;58.00;98673.88;2102302;28;20014;-70
2022/07/15 02:11:21;;;;;;;;;;;;;;;27.49;57.46;98672.47;2103315;28;19928;-71
2022/07/15 02:12:22;;;;;;;;;;;;;;;27.54;56.88;98672.53;2106740;28;19928;-71
2022/07/15 02:13:23;;;;;;;;;;;;;;;27.55;57.16;98676.06;2103634;28;19928;-70
2022/07/15 02:14:24;;;;;;;;;;;;;;;27.52;57.02;98676.59;2104502;28;20041;-70
2022/07/15 02:15:25;;;;;;;;;;;;;;;27.56;57.22;98675.81;2099801;28;20253;-71
2022/07/15 02:16:27;;;;;;;;;;;;;;;27.63;56.40;98670.13;2099805;28;19928;-70
2022/07/15 02:17:27;;;;;;;;;;;;;;;27.60;56.59;98670.66;2096599;28;19959;-72
2022/07/15 02:18:29;;;;;;;;;;;;;;;27.59;56.84;98669.03;2103155;28;19938;-71
2022/07/15 02:19:29;;;;;;;;;;;;;;;27.60;56.41;98673.38;2105963;28;19936;-70
2022/07/15 02:20:32;;;;;;;;;;;;;;;27.64;56.62;98663.59;2107013;28;20010;-70
2022/07/15 02:21:32;;;;;;;;;;;;;;;27.68;56.15;98669.34;2103064;28;19938;-70
2022/07/15 02:22:37;;;;;;;;;;;;;;;27.67;56.15;98668.53;2102887;28;20002;-71
2022/07/15 02:23:38;;;;;;;;;;;;;;;27.61;55.76;98664.13;2093394;28;20006;-71
2022/07/15 02:24:39;;;;;;;;;;;;;;;27.61;56.33;98675.03;2093782;28;19932;-70
2022/07/15 02:25:41;;;;;;;;;;;;;;;27.62;56.56;98671.22;2104859;28;20546;-70
2022/07/15 02:26:44;;;;;;;;;;;;;;;27.59;56.06;98671.75;2107471;28;20397;-71
2022/07/15 02:27:45;;;;;;;;;;;;;;;27.61;56.35;98673.13;2106964;28;20014;-71
2022/07/15 02:28:46;;;;;;;;;;;;;;;27.61;56.14;98666.88;2107665;28;20312;-70
2022/07/15 02:29:47;;;;;;;;;;;;;;;27.50;56.66;98665.97;2107242;28;20309;-70
2022/07/15 02:30:49;;;;;;;;;;;;;;;27.46;56.94;98673.00;2102439;28;20029;-71
2022/07/15 02:31:50;;;;;;;;;;;;;;;27.51;56.36;98673.03;2097614;28;19924;-70
2022/07/15 02:32:51;;;;;;;;;;;;;;;27.56;56.00;98666.81;2100830;28;19924;-71
2022/07/15 02:33:53;;;;;;;;;;;;;;;27.57;56.26;98668.44;2098810;28;19931;-70
2022/07/15 02:34:53;;;;;;;;;;;;;;;27.56;56.26;98672.28;2105040;28;19931;-71
2022/07/15 02:35:55;;;;;;;;;;;;;;;27.56;56.58;98666.81;2098507;28;20019;-70
2022/07/15 02:36:57;;;;;;;;;;;;;;;27.45;57.14;98671.38;2098879;28;19927;-70
2022/07/15 02:37:59;;;;;;;;;;;;;;;27.39;57.71;98667.78;2104009;28;19924;-70
2022/07/15 02:39:02;;;;;;;;;;;;;;;27.31;57.57;98662.00;2096735;28;20381;-70
2022/07/15 02:40:03;;;;;;;;;;;;;;;27.22;57.86;98663.53;2098996;28;19931;-70
2022/07/15 02:41:05;;;;;;;;;;;;;;;27.32;57.26;98660.91;2097477;28;19932;-70
2022/07/15 02:42:06;;;;;;;;;;;;;;;27.36;57.38;98660.13;2099972;28;19981;-71
2022/07/15 02:43:08;;;;;;;;;;;;;;;27.15;58.15;98666.47;2105500;28;19974;-70
2022/07/15 02:44:09;;;;;;;;;;;;;;;27.26;57.76;98664.69;2101529;28;19932;-70
2022/07/15 02:45:10;;;;;;;;;;;;;;;27.35;57.33;98663.94;2100695;28;20363;-70
2022/07/15 02:46:11;;;;;;;;;;;;;;;27.33;57.45;98662.53;2099362;28;20917;-71
2022/07/15 02:47:12;;;;;;;;;;;;;;;27.35;57.29;98661.19;2101190;28;19932;-71
2022/07/15 02:48:15;;;;;;;;;;;;;;;27.38;57.39;98665.31;2106313;28;20015;-71
2022/07/15 02:49:16;;;;;;;;;;;;;;;27.43;56.48;98661.81;2106702;28;19993;-71
2022/07/15 02:50:17;;;;;;;;;;;;;;;27.39;57.04;98665.06;2104884;28;19924;-71
2022/07/15 02:51:19;;;;;;;;;;;;;;;27.40;56.78;98666.69;2107557;28;20373;-71
2022/07/15 02:52:19;;;;;;;;;;;;;;;27.44;56.47;98661.53;2108658;28;20238;-70
2022/07/15 02:53:28;;;;;;;;;;;;;;;27.39;56.98;98662.34;2096967;28;19934;-70
2022/07/15 02:54:29;;;;;;;;;;;;;;;27.30;57.52;98661.19;2099594;28;20054;-71
2022/07/15 02:55:30;;;;;;;;;;;;;;;26.96;59.46;98658.66;2101154;28;19935;-70
2022/07/15 02:56:31;;;;;;;;;;;;;;;27.03;58.46;98658.47;2101212;28;21261;-70
2022/07/15 02:57:32;;;;;;;;;;;;;;;27.04;58.68;98664.72;2103067;28;19954;-71
2022/07/15 02:58:33;;;;;;;;;;;;;;;27.05;58.43;98667.22;2108299;28;19935;-70
2022/07/15 02:59:35;;;;;;;;;;;;;;;27.01;59.07;98667.97;2104910;28;20316;-70
2022/07/15 03:00:35;;;;;;;;;;;;;;;27.00;58.48;98656.28;2103245;28;20109;-70
2022/07/15 03:01:37;;;;;;;;;;;;;;;27.01;58.41;98670.69;2101697;28;20332;-72
2022/07/15 03:02:38;;;;;;;;;;;;;;;26.87;59.12;98665.66;2101212;28;20327;-72
2022/07/15 03:03:40;;;;;;;;;;;;;;;26.82;59.43;98662.88;2100387;28;19928;-72
2022/07/15 03:04:40;;;;;;;;;;;;;;;26.73;59.87;98659.81;2103187;28;20427;-72
2022/07/15 03:05:42;;;;;;;;;;;;;;;26.59;60.13;98657.75;2101467;28;19938;-72
2022/07/15 03:06:42;;;;;;;;;;;;;;;26.66;59.50;98658.34;2101412;28;20259;-72
2022/07/15 03:07:44;;;;;;;;;;;;;;;26.67;60.14;98654.59;2103963;28;19939;-72
2022/07/15 03:08:46;;;;;;;;;;;;;;;26.78;59.29;98659.06;2103956;28;19935;-72
2022/07/15 03:09:48;;;;;;;;;;;;;;;26.85;58.98;98658.84;2096881;28;19978;-72
2022/07/15 03:10:49;;;;;;;;;;;;;;;26.78;59.31;98660.94;2085415;28;20384;-72
2022/07/15 03:11:50;;;;;;;;;;;;;;;26.84;58.89;98662.63;2096090;28;19939;-72
2022/07/15 03:12:51;;;;;;;;;;;;;;;26.79;59.29;98659.88;2098614;28;20403;-71
2022/07/15 03:13:52;;;;;;;;;;;;;;;26.99;58.44;98664.69;2099566;28;19930;-73
2022/07/15 03:14:53;;;;;;;;;;;;;;;27.06;58.18;98663.41;2100188;28;20423;-71
2022/07/15 03:15:55;;;;;;;;;;;;;;;27.00;58.02;98661.72;2099037;28;19930;-72
2022/07/15 03:16:56;;;;;;;;;;;;;;;27.11;57.80;98655.28;2095491;27;19928;-72
2022/07/15 03:17:57;;;;;;;;;;;;;;;27.24;57.45;98662.22;2100425;28;20522;-72
2022/07/15 03:18:59;;;;;;;;;;;;;;;27.33;57.35;98657.94;2095715;27;20309;-72
2022/07/15 03:19:59;;;;;;;;;;;;;;;27.40;56.87;98658.53;2097309;28;19927;-72
2022/07/15 03:21:01;;;;;;;;;;;;;;;27.43;56.72;98653.66;2100036;28;19928;-72
2022/07/15 03:22:02;;;;;;;;;;;;;;;27.38;57.19;98654.41;2101739;28;19967;-72
2022/07/15 03:23:03;;;;;;;;;;;;;;;27.42;56.51;98652.00;2103074;28;20258;-72
2022/07/15 03:24:07;;;;;;;;;;;;;;;27.48;56.38;98656.41;2102903;28;20389;-72
2022/07/15 03:25:09;;;;;;;;;;;;;;;27.54;56.32;98655.34;2099774;28;19943;-72
2022/07/15 03:26:10;;;;;;;;;;;;;;;27.52;56.01;98654.78;2100407;28;21146;-72
2022/07/15 03:27:11;;;;;;;;;;;;;;;27.55;56.48;98649.66;2098010;28;19932;-72
2022/07/15 03:28:12;;;;;;;;;;;;;;;27.58;56.09;98654.59;2098620;28;19927;-72
2022/07/15 03:29:15;;;;;;;;;;;;;;;27.42;57.04;98661.00;2097940;28;19924;-72
2022/07/15 03:30:16;;;;;;;;;;;;;;;27.24;57.68;98659.47;2103536;28;21364;-72
2022/07/15 03:31:17;;;;;;;;;;;;;;;27.03;58.20;98661.19;2098651;28;20440;-72
2022/07/15 03:32:20;;;;;;;;;;;;;;;27.13;57.27;98658.53;2100824;28;20015;-72
2022/07/15 03:33:20;;;;;;;;;;;;;;;27.03;58.41;98655.75;2100554;28;19936;-72
2022/07/15 03:34:25;;;;;;;;;;;;;;;26.94;58.42;98658.13;2101584;28;20406;-72
2022/07/15 03:35:25;;;;;;;;;;;;;;;26.89;58.69;98658.06;2100672;28;19997;-72
2022/07/15 03:36:27;;;;;;;;;;;;;;;27.00;58.30;98660.91;2098640;28;20016;-72
2022/07/15 03:37:27;;;;;;;;;;;;;;;26.94;58.73;98657.28;2098830;28;19927;-72
2022/07/15 03:38:29;;;;;;;;;;;;;;;26.99;58.46;98656.50;2102941;28;19924;-72
2022/07/15 03:39:31;;;;;;;;;;;;;;;27.09;58.25;98656.63;2103735;28;20301;-72
2022/07/15 03:40:32;;;;;;;;;;;;;;;27.02;58.33;98656.00;2097480;28;20376;-72
2022/07/15 03:41:33;;;;;;;;;;;;;;;27.07;57.69;98658.75;2095779;28;19943;-72
2022/07/15 03:42:35;;;;;;;;;;;;;;;27.16;57.66;98658.09;2100582;28;19927;-72
2022/07/15 03:43:35;;;;;;;;;;;;;;;27.14;57.66;98664.84;2101850;28;20524;-72
2022/07/15 03:44:37;;;;;;;;;;;;;;;27.14;57.39;98662.09;2099360;28;19933;-72
2022/07/15 03:45:38;;;;;;;;;;;;;;;27.08;57.73;98663.13;2108961;28;19950;-72
2022/07/15 03:46:39;;;;;;;;;;;;;;;26.95;58.48;98667.91;2108220;28;20406;-72
2022/07/15 03:47:41;;;;;;;;;;;;;;;26.94;58.29;98663.56;2107073;28;19932;-72
2022/07/15 03:48:42;;;;;;;;;;;;;;;26.91;58.58;98672.25;2100100;28;19959;-72
2022/07/15 03:49:43;;;;;;;;;;;;;;;26.95;58.20;98673.38;2097171;28;20347;-72
2022/07/15 03:50:44;;;;;;;;;;;;;;;26.94;57.99;98671.72;2101222;28;20034;-72
2022/07/15 03:51:45;;;;;;;;;;;;;;;27.04;57.66;98676.44;2098764;28;19931;-72
2022/07/15 03:52:46;;;;;;;;;;;;;;;27.06;57.82;98674.28;2098860;28;20793;-72
2022/07/15 03:53:48;;;;;;;;;;;;;;;27.12;57.20;98677.88;2082438;28;20422;-72
2022/07/15 03:54:50;;;;;;;;;;;;;;;27.18;56.95;98676.88;2095298;28;19928;-72
2022/07/15 03:55:51;;;;;;;;;;;;;;;27.23;56.89;98679.63;2095791;28;19976;-72
2022/07/15 03:56:52;;;;;;;;;;;;;;;27.11;57.42;98681.69;2099613;28;19938;-72
2022/07/15 03:57:55;;;;;;;;;;;;;;;27.16;57.26;98679.00;2099611;28;20356;-72
2022/07/15 03:58:56;;;;;;;;;;;;;;;27.15;57.16;98677.34;2098580;28;19932;-71
2022/07/15 03:59:58;;;;;;;;;;;;;;;27.23;56.59;98667.94;2095889;28;20023;-72
2022/07/15 04:00:59;;;;;;;;;;;;;;;27.10;57.52;98674.56;2097789;28;19924;-72
2022/07/15 04:02:00;;;;;;;;;;;;;;;27.07;57.33;98675.09;2098130;28;19939;-72
2022/07/15 04:03:01;;;;;;;;;;;;;;;26.94;58.19;98671.72;2096763;28;20147;-72
2022/07/15 04:04:02;;;;;;;;;;;;;;;26.91;58.50;98669.53;2100061;28;19923;-72
2022/07/15 04:05:03;;;;;;;;;;;;;;;26.99;57.75;98678.28;2096974;28;19928;-71
2022/07/15 04:06:05;;;;;;;;;;;;;;;26.80;58.51;98670.50;2098376;28;20387;-71
2022/07/15 04:07:06;;;;;;;;;;;;;;;26.94;57.49;98671.72;2098543;28;19945;-72
2022/07/15 04:08:07;;;;;;;;;;;;;;;27.05;57.70;98677.25;2103725;28;19927;-72
2022/07/15 04:09:09;;;;;;;;;;;;;;;27.02;57.29;98672.31;2105271;28;19931;-71
2022/07/15 04:10:13;;;;;;;;;;;;;;;26.90;58.07;98680.66;2100035;28;22807;-71
2022/07/15 04:11:13;;;;;;;;;;;;;;;26.96;57.90;98674.19;2097271;28;19931;-72
2022/07/15 04:12:15;;;;;;;;;;;;;;;26.93;58.09;98675.50;2101227;28;23598;-72
2022/07/15 04:13:18;;;;;;;;;;;;;;;26.89;58.04;98666.22;2106388;28;20695;-72
2022/07/15 04:14:22;;;;;;;;;;;;;;;26.96;57.68;98675.00;2104039;28;19924;-72
2022/07/15 04:15:22;;;;;;;;;;;;;;;27.02;57.89;98666.88;2099916;28;20007;-72
2022/07/15 04:16:24;;;;;;;;;;;;;;;27.02;57.26;98673.13;2106584;28;19977;-72
2022/07/15 04:17:24;;;;;;;;;;;;;;;27.04;57.25;98675.63;2107641;28;19928;-72
2022/07/15 04:18:26;;;;;;;;;;;;;;;27.05;57.50;98671.81;2101599;28;19932;-72
2022/07/15 04:19:26;;;;;;;;;;;;;;;26.89;58.35;98679.03;2099222;28;19992;-72
2022/07/15 04:20:28;;;;;;;;;;;;;;;26.70;58.58;98675.84;2098992;28;20007;-72
2022/07/15 04:21:29;;;;;;;;;;;;;;;26.83;58.47;98678.16;2100471;28;19927;-72
2022/07/15 04:22:30;;;;;;;;;;;;;;;26.79;58.21;98674.28;2101143;28;19935;-72
2022/07/15 04:23:31;;;;;;;;;;;;;;;26.92;57.79;98673.06;2100506;28;19939;-72
2022/07/15 04:24:32;;;;;;;;;;;;;;;26.92;57.42;98675.78;2103474;28;19928;-72
2022/07/15 04:25:35;;;;;;;;;;;;;;;27.03;57.49;98680.25;2096364;28;19928;-72
2022/07/15 04:26:37;;;;;;;;;;;;;;;26.96;57.27;98682.34;2100527;28;19992;-71
2022/07/15 04:27:37;;;;;;;;;;;;;;;27.06;56.97;98681.63;2099145;28;22006;-72
2022/07/15 04:28:39;;;;;;;;;;;;;;;27.05;57.32;98682.69;2098192;28;19939;-72
2022/07/15 04:29:39;;;;;;;;;;;;;;;27.05;57.47;98688.13;2099727;28;19923;-72
2022/07/15 04:30:41;;;;;;;;;;;;;;;27.11;56.98;98685.22;2107023;28;21092;-72
2022/07/15 04:31:41;;;;;;;;;;;;;;;27.18;56.55;98687.75;2099633;28;19959;-72
2022/07/15 04:32:43;;;;;;;;;;;;;;;27.21;56.76;98687.22;2098970;28;19924;-72
2022/07/15 04:33:44;;;;;;;;;;;;;;;27.27;56.35;98682.66;2100694;28;19927;-72
2022/07/15 04:34:45;;;;;;;;;;;;;;;27.27;56.69;98685.38;2098353;28;19932;-72
2022/07/15 04:35:46;;;;;;;;;;;;;;;27.06;57.62;98681.63;2099478;28;19927;-72
2022/07/15 04:36:47;;;;;;;;;;;;;;;27.11;57.36;98682.50;2099914;28;19932;-72
2022/07/15 04:37:48;;;;;;;;;;;;;;;27.15;57.10;98686.34;2099620;28;20862;-71
2022/07/15 04:38:49;;;;;;;;;;;;;;;27.08;57.37;98677.56;2100181;28;19927;-72
2022/07/15 04:39:50;;;;;;;;;;;;;;;27.06;56.92;98681.63;2102097;28;19928;-72
2022/07/15 04:40:53;;;;;;;;;;;;;;;26.96;57.63;98677.72;2102748;28;19927;-72
2022/07/15 04:41:54;;;;;;;;;;;;;;;27.03;57.34;98674.81;2097644;28;19932;-72
2022/07/15 04:42:57;;;;;;;;;;;;;;;27.13;56.65;98683.03;2102403;28;20414;-71
2022/07/15 04:43:58;;;;;;;;;;;;;;;27.11;57.17;98678.97;2098217;27;20180;-71
2022/07/15 04:44:59;;;;;;;;;;;;;;;27.13;56.91;98684.94;2101969;28;19935;-71
2022/07/15 04:46:00;;;;;;;;;;;;;;;27.15;57.22;98678.16;2108458;28;19928;-71
2022/07/15 04:47:02;;;;;;;;;;;;;;;26.87;57.70;98673.81;2109052;28;20239;-71
2022/07/15 04:50:45;;;;;;;;;;;;;;;26.90;57.61;98676.03;2102100;28;19978;-72
2022/07/15 04:50:48;;;;;;;;;;;;;;;27.15;56.82;98674.63;2099863;28;19923;-72
2022/07/15 04:51:49;;;;;;;;;;;;;;;27.16;56.73;98674.41;2099713;28;20607;-72
2022/07/15 04:52:50;;;;;;;;;;;;;;;27.17;56.23;98676.03;2098703;28;19972;-72
2022/07/15 04:53:52;;;;;;;;;;;;;;;27.22;56.64;98671.72;2097917;28;19934;-71
2022/07/15 04:54:53;;;;;;;;;;;;;;;27.27;56.03;98674.47;2100313;28;20066;-72
2022/07/15 04:55:56;;;;;;;;;;;;;;;27.29;55.88;98669.59;2102934;28;19955;-72
2022/07/15 04:56:56;;;;;;;;;;;;;;;27.33;55.89;98665.25;2102812;27;19940;-72
2022/07/15 04:57:58;;;;;;;;;;;;;;;27.25;56.07;98668.50;2099550;28;19932;-72
2022/07/15 04:58:58;;;;;;;;;;;;;;;27.31;55.83;98673.72;2101141;28;19931;-72
2022/07/15 05:00:00;;;;;;;;;;;;;;;27.31;56.08;98671.00;2102136;28;20403;-72
2022/07/15 05:01:00;;;;;;;;;;;;;;;27.34;55.79;98675.91;2100153;28;20517;-72
2022/07/15 05:02:02;;;;;;;;;;;;;;;27.31;56.14;98670.19;2099225;28;19943;-72
2022/07/15 05:03:04;;;;;;;;;;;;;;;27.33;55.76;98677.00;2098222;28;20427;-72
2022/07/15 05:04:05;;;;;;;;;;;;;;;27.36;55.89;98668.31;2101656;28;19934;-72
2022/07/15 05:05:07;;;;;;;;;;;;;;;27.37;55.56;98664.50;2108804;28;20310;-72
2022/07/15 05:06:09;;;;;;;;;;;;;;;27.33;56.10;98670.72;2104298;28;20369;-72
2022/07/15 05:07:10;;;;;;;;;;;;;;;27.21;56.81;98676.34;2102647;28;21561;-72
2022/07/15 05:08:11;;;;;;;;;;;;;;;27.18;57.01;98671.41;2101136;28;20011;-72
2022/07/15 05:09:12;;;;;;;;;;;;;;;27.02;56.69;98675.03;2084007;28;20029;-71
2022/07/15 05:10:14;;;;;;;;;;;;;;;27.11;56.35;98677.06;2086249;28;20038;-72
2022/07/15 05:11:16;;;;;;;;;;;;;;;27.12;56.82;98677.88;2091765;28;20282;-72
2022/07/15 05:12:18;;;;;;;;;;;;;;;27.23;56.35;98678.81;2098228;28;19978;-72
2022/07/15 05:13:18;;;;;;;;;;;;;;;27.31;55.79;98681.06;2095111;28;19927;-72
2022/07/15 05:14:20;;;;;;;;;;;;;;;27.37;55.97;98680.84;2098861;28;20374;-72
2022/07/15 05:15:20;;;;;;;;;;;;;;;27.42;55.52;98676.53;2098420;28;19928;-72
2022/07/15 05:16:22;;;;;;;;;;;;;;;27.46;55.82;98678.44;2095902;28;19932;-72
2022/07/15 05:17:22;;;;;;;;;;;;;;;27.47;55.47;98679.25;2097552;27;20014;-71
2022/07/15 05:18:25;;;;;;;;;;;;;;;27.50;55.76;98685.03;2096880;28;19935;-72
2022/07/15 05:19:26;;;;;;;;;;;;;;;27.51;55.54;98688.56;2096976;28;19928;-71
2022/07/15 05:20:27;;;;;;;;;;;;;;;27.52;55.95;98684.75;2096144;28;20328;-72
2022/07/15 05:21:29;;;;;;;;;;;;;;;27.53;55.74;98687.22;2100813;27;19990;-71
2022/07/15 05:22:29;;;;;;;;;;;;;;;27.55;55.58;98692.41;2093817;28;20365;-72
2022/07/15 05:23:31;;;;;;;;;;;;;;;27.56;55.69;98692.16;2094907;28;19923;-72
2022/07/15 05:24:31;;;;;;;;;;;;;;;27.59;55.50;98693.53;2098311;28;19954;-72